KMPZ/MPZ METAR and TAF weather

Enter ICAO airport designator
Station Type Date Time Source
KMPZ METAR 2021/01/16 01:35 UTC NOAA

KMPZ 160135Z AUTO 00000KT 10SM SCT080 00/00 A2965 RMK AO2


Station Type Date Time Source
KMPZ Decoded METAR 2021/01/16 01:35 UTC NOAA

Mount Pleasant, Mount Pleasant Municipal Airport, IA, United States (KMPZ) 40-56-48N 091-30-40W
Jan 15, 2021 - 08:35 PM EST / 2021.01.16 0135 UTC
Wind: Calm:0
Visibility: 10 mile(s):0
Sky conditions: partly cloudy
Temperature: 32 F (0 C)
Dew Point: 32 F (0 C)
Relative Humidity: 100%
Pressure (altimeter): 29.65 in. Hg (1004 hPa)
ob: KMPZ 160135Z AUTO 00000KT 10SM SCT080 00/00 A2965 RMK AO2
cycle: 1

Station Type Date Time Source
KMPZ TAF UTC NOAA

Error!

Example: see airport list